METAR Data
IDs: Format: Raw Decoded Include TAF

Data at: 0738 UTC 21 Oct 2018

METAR for:K4I3 (Mount Vernon/Knox Cn, OH, US)
Text:K4I3 210719Z AUTO 31011G16KT 10SM OVC031 01/M02 A3017 RMK AO2
Temperature: 1.0°C ( 34°F)
Dewpoint: -2.0°C ( 28°F) [RH = 80%]
Pressure (altimeter):30.17 inches Hg (1021.8 mb)
Winds:from the NW (310 degrees) at 13 MPH (11 knots; 5.7 m/s) gusting to 18 MPH (16 knots; 8.2 m/s)
Visibility:10 or more sm (16+ km)
Ceiling:3100 feet AGL
Clouds: overcast cloud deck at 3100 feet AGL
QC Flag:automated observation with no human augmentation